Time;durP1;ratioP1;P1;durP2;ratioP2;P2;SDS_P1;SDS_P2;PMS_P1;PMS_P2;Temp;Humidity;BMP_temperature;BMP_pressure;BME280_temperature;BME280_humidity;BME280_pressure;Samples;Min_cycle;Max_cycle;Signal;HPM_P1;HPM_P2
2021/09/27 00:00:22;;;;;;;6.55;3.25;;;;;;;;;;5070478;28;20469;-65
2021/09/27 00:02:49;;;;;;;5.65;2.50;;;;;;;;;;5070109;28;20032;-66
2021/09/27 00:05:17;;;;;;;5.75;2.90;;;;;;;;;;5070447;28;20546;-65
2021/09/27 00:07:43;;;;;;;6.97;3.35;;;;;;;;;;5070521;28;20025;-66
2021/09/27 00:10:10;;;;;;;4.97;2.60;;;;;;;;;;5069815;28;20036;-65
2021/09/27 00:12:37;;;;;;;5.35;2.83;;;;;;;;;;5070667;28;20377;-65
2021/09/27 00:16:00;;;;;;;6.43;3.50;;;;;;;;;;5071166;27;20462;-66
2021/09/27 00:19:39;;;;;;;5.50;3.17;;;;;;;;;;5173380;27;20171;-65
2021/09/27 00:22:06;;;;;;;8.70;3.33;;;;;;;;;;5133584;27;20041;-65
2021/09/27 00:29:46;;;;;;;6.22;2.90;;;;;;;;;;5110951;27;20400;-65
2021/09/27 00:32:12;;;;;;;6.03;2.92;;;;;;;;;;5110676;28;20024;-65
2021/09/27 00:34:39;;;;;;;6.93;2.85;;;;;;;;;;5111012;28;20024;-66
2021/09/27 00:37:05;;;;;;;5.93;2.55;;;;;;;;;;5111127;28;20032;-65
2021/09/27 00:40:07;;;;;;;7.20;3.25;;;;;;;;;;5110633;27;20412;-67
2021/09/27 00:44:44;;;;;;;5.55;2.67;;;;;;;;;;5111038;27;20393;-65
2021/09/27 00:48:31;;;;;;;6.68;3.22;;;;;;;;;;5111054;27;20473;-66
2021/09/27 00:51:58;;;;;;;8.30;3.42;;;;;;;;;;5111567;27;20407;-65
2021/09/27 00:56:17;;;;;;;6.20;2.90;;;;;;;;;;5111224;27;20396;-66
2021/09/27 00:58:44;;;;;;;6.45;3.40;;;;;;;;;;5111053;28;20024;-65
2021/09/27 01:02:01;;;;;;;6.03;3.10;;;;;;;;;;5070752;28;20414;-67
2021/09/27 01:04:28;;;;;;;4.85;2.88;;;;;;;;;;5070766;28;20021;-68
2021/09/27 01:07:14;;;;;;;5.88;3.22;;;;;;;;;;5070132;28;20025;-66
2021/09/27 01:09:50;;;;;;;6.55;3.40;;;;;;;;;;5070613;28;20044;-66
2021/09/27 01:12:25;;;;;;;6.25;2.90;;;;;;;;;;5070910;28;20035;-66
2021/09/27 01:15:05;;;;;;;8.65;3.35;;;;;;;;;;5069856;28;20037;-66
2021/09/27 01:18:35;;;;;;;7.68;3.83;;;;;;;;;;5112000;27;20877;-68
2021/09/27 01:21:04;;;;;;;7.47;3.35;;;;;;;;;;5110733;28;20047;-68
2021/09/27 01:24:45;;;;;;;7.20;2.92;;;;;;;;;;5111789;27;20832;-65
2021/09/27 01:27:27;;;;;;;7.18;3.05;;;;;;;;;;5109393;28;20030;-67
2021/09/27 01:35:01;;;;;;;10.05;3.78;;;;;;;;;;5110944;27;20400;-65
2021/09/27 01:37:34;;;;;;;9.38;3.53;;;;;;;;;;5111225;28;20440;-65
2021/09/27 01:40:19;;;;;;;7.32;3.72;;;;;;;;;;5111251;28;20395;-66
2021/09/27 01:42:50;;;;;;;10.20;4.40;;;;;;;;;;5110586;28;20051;-66
2021/09/27 01:45:23;;;;;;;7.70;4.05;;;;;;;;;;5110934;28;20026;-65
2021/09/27 01:48:11;;;;;;;7.22;3.97;;;;;;;;;;5109396;28;20030;-65
2021/09/27 01:50:46;;;;;;;9.27;3.40;;;;;;;;;;5110396;28;20081;-65
2021/09/27 01:53:24;;;;;;;7.38;3.38;;;;;;;;;;5110554;28;20102;-65
2021/09/27 01:55:56;;;;;;;7.88;3.42;;;;;;;;;;5110383;28;20028;-66
2021/09/27 01:58:23;;;;;;;8.38;3.22;;;;;;;;;;5110531;28;20031;-66
2021/09/27 02:06:16;;;;;;;6.85;3.40;;;;;;;;;;5111524;27;20392;-68
2021/09/27 02:10:58;;;;;;;5.72;2.80;;;;;;;;;;5050124;28;20410;-65
2021/09/27 02:19:02;;;;;;;7.70;3.58;;;;;;;;;;5111113;27;20472;-65
2021/09/27 02:23:35;;;;;;;7.80;3.40;;;;;;;;;;5111243;27;20723;-65
2021/09/27 02:27:04;;;;;;;6.72;3.20;;;;;;;;;;5111515;27;20400;-66
2021/09/27 02:29:31;;;;;;;7.60;3.80;;;;;;;;;;5111074;28;20494;-66
2021/09/27 02:33:33;;;;;;;6.05;3.35;;;;;;;;;;5111846;27;20511;-67
2021/09/27 02:35:59;;;;;;;7.10;3.40;;;;;;;;;;5111152;28;20031;-66
2021/09/27 02:38:28;;;;;;;8.13;3.63;;;;;;;;;;5110566;28;20267;-66
2021/09/27 02:41:01;;;;;;;9.43;4.07;;;;;;;;;;5109720;28;20051;-66
2021/09/27 02:43:56;;;;;;;6.30;3.60;;;;;;;;;;5098972;27;1607650;-66
2021/09/27 02:49:45;;;;;;;8.13;3.95;;;;;;;;;;5110973;27;20458;-65
2021/09/27 02:53:06;;;;;;;8.32;3.80;;;;;;;;;;5110734;27;20314;-66
2021/09/27 02:55:55;;;;;;;6.72;3.33;;;;;;;;;;5111029;28;20054;-66
2021/09/27 02:59:41;;;;;;;7.13;4.15;;;;;;;;;;5110915;27;20389;-66
2021/09/27 03:02:15;;;;;;;6.25;3.55;;;;;;;;;;5110977;28;20534;-67
2021/09/27 03:04:57;;;;;;;7.15;3.67;;;;;;;;;;5109727;28;20553;-67
2021/09/27 03:07:24;;;;;;;9.90;4.47;;;;;;;;;;5110600;28;20104;-66
2021/09/27 03:13:33;;;;;;;8.65;3.92;;;;;;;;;;5110835;27;20525;-66
2021/09/27 03:16:50;;;;;;;6.78;3.83;;;;;;;;;;5082164;27;2048062;-65
2021/09/27 03:19:34;;;;;;;6.28;3.35;;;;;;;;;;5130262;28;20035;-65
2021/09/27 03:22:22;;;;;;;5.20;3.13;;;;;;;;;;5129776;28;20019;-66
2021/09/27 03:24:56;;;;;;;8.07;3.28;;;;;;;;;;5132059;28;20483;-65
2021/09/27 03:29:20;;;;;;;10.63;4.28;;;;;;;;;;5070410;28;20403;-66
2021/09/27 03:34:09;;;;;;;8.85;4.05;;;;;;;;;;5164603;27;20422;-65
2021/09/27 03:38:36;;;;;;;6.65;3.55;;;;;;;;;;5111365;27;20392;-66
2021/09/27 03:41:09;;;;;;;8.45;4.88;;;;;;;;;;5110679;28;20112;-65
2021/09/27 03:43:57;;;;;;;10.43;5.13;;;;;;;;;;5111024;28;20062;-65
2021/09/27 03:48:35;;;;;;;9.02;4.85;;;;;;;;;;5111159;27;20569;-68
2021/09/27 03:51:03;;;;;;;7.72;4.53;;;;;;;;;;5109784;28;20480;-68
2021/09/27 03:53:34;;;;;;;8.90;4.28;;;;;;;;;;5111007;28;20020;-68
2021/09/27 03:56:03;;;;;;;9.15;4.72;;;;;;;;;;5110777;28;20038;-66
2021/09/27 03:58:31;;;;;;;8.35;4.22;;;;;;;;;;5110906;28;20016;-68
2021/09/27 04:01:11;;;;;;;10.48;4.63;;;;;;;;;;5111444;28;20037;-67
2021/09/27 04:05:48;;;;;;;8.15;4.30;;;;;;;;;;5111498;27;20433;-68
2021/09/27 04:08:22;;;;;;;16.02;5.57;;;;;;;;;;5109694;28;20023;-67
2021/09/27 04:12:16;;;;;;;9.10;4.03;;;;;;;;;;5111179;27;20465;-65
2021/09/27 04:14:51;;;;;;;10.57;4.90;;;;;;;;;;5111210;28;20396;-66
2021/09/27 04:21:24;;;;;;;13.02;4.63;;;;;;;;;;5111194;27;20516;-69
2021/09/27 04:24:09;;;;;;;9.00;4.07;;;;;;;;;;5110876;28;20028;-68
2021/09/27 04:26:58;;;;;;;12.07;4.93;;;;;;;;;;5111326;27;20512;-67
2021/09/27 04:33:23;;;;;;;9.32;5.22;;;;;;;;;;5111155;27;20393;-68
2021/09/27 04:35:56;;;;;;;12.95;5.50;;;;;;;;;;5111217;28;20032;-68
2021/09/27 04:38:47;;;;;;;11.13;5.22;;;;;;;;;;5070395;28;20395;-68
2021/09/27 04:41:34;;;;;;;7.32;4.10;;;;;;;;;;5070761;28;20025;-69
2021/09/27 04:45:50;;;;;;;11.50;4.75;;;;;;;;;;5110875;27;20442;-66
2021/09/27 04:48:32;;;;;;;9.38;4.80;;;;;;;;;;5111058;28;20027;-67
2021/09/27 04:52:06;;;;;;;8.18;4.45;;;;;;;;;;5050244;28;20424;-65
2021/09/27 04:54:42;;;;;;;10.63;4.10;;;;;;;;;;5050487;28;20103;-65
2021/09/27 04:57:26;;;;;;;11.60;5.20;;;;;;;;;;5050468;28;20029;-66
2021/09/27 04:59:52;;;;;;;;;;;;;;;;;;5050451;28;20021;-66
2021/09/27 05:05:13;;;;;;;15.52;6.00;;;;;;;;;;5110864;27;20399;-66
2021/09/27 05:09:45;;;;;;;7.55;4.78;;;;;;;;;;5110173;27;20389;-70
2021/09/27 05:12:14;;;;;;;7.88;4.53;;;;;;;;;;5109217;28;20055;-70
2021/09/27 05:14:40;;;;;;;7.43;4.05;;;;;;;;;;5107262;28;20101;-69
2021/09/27 05:17:09;;;;;;;10.48;5.03;;;;;;;;;;5108256;28;20060;-71
2021/09/27 05:19:53;;;;;;;8.20;3.95;;;;;;;;;;5106215;28;20019;-70
2021/09/27 05:25:13;;;;;;;10.68;4.85;;;;;;;;;;5109397;27;20443;-72
2021/09/27 05:33:17;;;;;;;8.95;4.80;;;;;;;;;;5112815;27;20437;-70
2021/09/27 05:37:59;;;;;;;7.22;3.97;;;;;;;;;;5110287;27;20385;-71
2021/09/27 05:40:30;;;;;;;8.13;4.13;;;;;;;;;;5110226;28;20492;-68
2021/09/27 05:45:49;;;;;;;6.88;3.65;;;;;;;;;;5109522;27;20397;-70
2021/09/27 05:48:15;;;;;;;7.63;4.18;;;;;;;;;;5107189;28;20047;-72
2021/09/27 05:51:11;;;;;;;8.38;4.88;;;;;;;;;;5067094;28;20395;-71
2021/09/27 05:55:23;;;;;;;6.82;3.97;;;;;;;;;;5067483;28;20399;-71
2021/09/27 05:57:57;;;;;;;11.30;4.47;;;;;;;;;;5068005;28;20433;-70
2021/09/27 06:01:43;;;;;;;6.82;3.83;;;;;;;;;;5109211;27;20466;-72
2021/09/27 06:04:59;;;;;;;6.13;3.47;;;;;;;;;;5067771;28;20421;-72
2021/09/27 06:07:25;;;;;;;7.35;3.70;;;;;;;;;;5068049;28;20472;-70
2021/09/27 06:10:42;;;;;;;13.88;7.82;;;;;;;;;;5067840;28;20851;-69
2021/09/27 06:13:08;;;;;;;10.75;4.50;;;;;;;;;;5064328;28;20095;-70
2021/09/27 06:29:39;;;;;;;10.77;4.05;;;;;;;;;;5107704;27;20108;-72
2021/09/27 06:32:05;;;;;;;7.55;3.67;;;;;;;;;;5108201;28;20032;-71
2021/09/27 06:34:53;;;;;;;8.43;3.78;;;;;;;;;;5066347;28;20403;-72
2021/09/27 06:37:20;;;;;;;6.88;3.33;;;;;;;;;;5066120;28;20043;-73
2021/09/27 06:41:05;;;;;;;7.13;3.33;;;;;;;;;;5068139;28;20461;-65
2021/09/27 06:50:49;;;;;;;5.28;3.20;;;;;;;;;;5048587;28;20413;-66
2021/09/27 06:53:15;;;;;;;9.13;4.22;;;;;;;;;;5048950;28;20056;-67
2021/09/27 06:59:22;;;;;;;6.22;3.22;;;;;;;;;;5110047;27;20396;-66
2021/09/27 07:01:49;;;;;;;5.45;3.15;;;;;;;;;;5109298;28;20024;-66
2021/09/27 07:05:35;;;;;;;10.18;5.60;;;;;;;;;;5097522;27;1620357;-66
2021/09/27 07:08:01;;;;;;;8.23;3.50;;;;;;;;;;5129090;28;20465;-65
2021/09/27 07:10:28;;;;;;;8.90;3.25;;;;;;;;;;5129252;28;20020;-65
2021/09/27 07:13:58;;;;;;;7.95;3.20;;;;;;;;;;5129213;27;20323;-65
2021/09/27 07:16:24;;;;;;;7.15;3.42;;;;;;;;;;5090134;28;20027;-64
2021/09/27 07:20:40;;;;;;;6.63;3.33;;;;;;;;;;5106793;27;20408;-66
2021/09/27 07:23:06;;;;;;;9.55;3.95;;;;;;;;;;5102295;28;20031;-66
2021/09/27 07:27:15;;;;;;;10.48;6.35;;;;;;;;;;5098249;27;20417;-67
2021/09/27 07:29:42;;;;;;;22.08;14.15;;;;;;;;;;5089849;28;20024;-66
2021/09/27 07:32:08;;;;;;;9.90;5.75;;;;;;;;;;5095159;28;20132;-64
2021/09/27 07:34:34;;;;;;;7.80;5.18;;;;;;;;;;5088240;28;20051;-66
2021/09/27 07:37:03;;;;;;;7.43;3.67;;;;;;;;;;5094288;28;20421;-66
2021/09/27 07:40:43;;;;;;;7.22;3.28;;;;;;;;;;5108950;27;20139;-65
2021/09/27 07:43:10;;;;;;;4.35;3.03;;;;;;;;;;5107172;28;20032;-64
2021/09/27 07:46:12;;;;;;;8.35;3.90;;;;;;;;;;5109337;27;20416;-64
2021/09/27 07:49:52;;;;;;;10.07;6.68;;;;;;;;;;5110217;27;20457;-69
2021/09/27 07:52:18;;;;;;;6.43;3.53;;;;;;;;;;5110203;28;20498;-71
2021/09/27 07:54:45;;;;;;;8.00;3.47;;;;;;;;;;5104882;28;20023;-71
2021/09/27 07:57:11;;;;;;;9.68;3.40;;;;;;;;;;5107975;28;20103;-67
2021/09/27 07:59:37;;;;;;;14.77;4.10;;;;;;;;;;5109426;28;20067;-66
2021/09/27 08:02:03;;;;;;;11.63;4.00;;;;;;;;;;5108965;28;20033;-67
2021/09/27 08:06:30;;;;;;;5.90;2.80;;;;;;;;;;5094207;27;1618602;-66
2021/09/27 08:08:56;;;;;;;7.55;3.22;;;;;;;;;;5126019;28;20511;-70
2021/09/27 08:11:22;;;;;;;6.78;3.00;;;;;;;;;;5125376;28;20110;-69
2021/09/27 08:13:48;;;;;;;8.88;3.95;;;;;;;;;;5126834;28;20027;-70
2021/09/27 08:16:15;;;;;;;9.00;3.33;;;;;;;;;;5126806;28;20031;-69
2021/09/27 08:18:41;;;;;;;4.93;2.85;;;;;;;;;;5128829;28;20047;-68
2021/09/27 08:21:09;;;;;;;6.28;2.85;;;;;;;;;;5128630;28;20034;-70
2021/09/27 08:23:35;;;;;;;5.90;2.90;;;;;;;;;;5125382;28;20039;-69
2021/09/27 08:28:23;;;;;;;6.05;2.85;;;;;;;;;;5110235;27;20381;-68
2021/09/27 08:30:52;;;;;;;4.82;2.78;;;;;;;;;;5109988;28;20106;-67
2021/09/27 08:34:55;;;;;;;6.90;3.22;;;;;;;;;;5105169;27;20876;-68
2021/09/27 08:37:21;;;;;;;10.88;3.42;;;;;;;;;;5109692;28;20124;-67
2021/09/27 08:39:48;;;;;;;7.97;3.55;;;;;;;;;;5110022;28;20063;-69
2021/09/27 08:42:26;;;;;;;7.90;2.97;;;;;;;;;;5120808;28;20781;-69
2021/09/27 08:45:18;;;;;;;8.00;3.28;;;;;;;;;;5116812;28;20038;-69
2021/09/27 08:47:51;;;;;;;7.25;3.13;;;;;;;;;;5107202;28;20036;-71
2021/09/27 08:50:20;;;;;;;7.97;3.50;;;;;;;;;;5099220;28;20021;-69
2021/09/27 08:52:46;;;;;;;6.57;3.58;;;;;;;;;;5103348;28;20031;-70
2021/09/27 08:55:14;;;;;;;5.85;2.72;;;;;;;;;;5107053;28;20484;-69
2021/09/27 09:00:06;;;;;;;5.30;2.90;;;;;;;;;;5110521;27;20446;-65
2021/09/27 09:02:32;;;;;;;6.28;3.25;;;;;;;;;;5110352;28;20102;-66
2021/09/27 09:05:07;;;;;;;10.20;3.33;;;;;;;;;;5109668;28;20141;-68
2021/09/27 09:07:34;;;;;;;8.07;3.28;;;;;;;;;;5108500;28;20476;-70
2021/09/27 09:10:02;;;;;;;6.95;3.13;;;;;;;;;;5109778;28;20558;-69
2021/09/27 09:12:35;;;;;;;6.38;3.10;;;;;;;;;;5109881;28;20042;-70
2021/09/27 09:15:13;;;;;;;7.05;2.65;;;;;;;;;;5108427;28;20510;-72
2021/09/27 09:17:43;;;;;;;7.43;3.10;;;;;;;;;;5107879;28;20473;-68
2021/09/27 09:20:15;;;;;;;5.50;2.88;;;;;;;;;;5105821;28;20028;-70
2021/09/27 09:24:38;;;;;;;6.95;3.13;;;;;;;;;;5067016;28;20833;-69
2021/09/27 09:27:07;;;;;;;6.03;2.75;;;;;;;;;;5066369;28;20021;-68
2021/09/27 09:29:34;;;;;;;6.60;2.70;;;;;;;;;;5066249;28;20029;-69
2021/09/27 09:32:07;;;;;;;6.57;3.20;;;;;;;;;;5067297;28;20109;-66
2021/09/27 09:36:53;;;;;;;6.38;3.50;;;;;;;;;;5108356;27;20408;-69
2021/09/27 09:39:24;;;;;;;6.25;3.47;;;;;;;;;;5107867;28;20693;-69
2021/09/27 09:41:52;;;;;;;10.57;5.00;;;;;;;;;;5106551;28;20098;-67
2021/09/27 09:44:23;;;;;;;10.18;4.72;;;;;;;;;;5106837;28;20026;-65
2021/09/27 09:47:04;;;;;;;8.60;3.50;;;;;;;;;;5107243;28;20024;-68
2021/09/27 09:49:48;;;;;;;5.13;2.67;;;;;;;;;;5094741;28;20393;-68
2021/09/27 09:52:24;;;;;;;5.78;2.92;;;;;;;;;;5093529;28;20084;-67
2021/09/27 09:54:50;;;;;;;6.47;3.05;;;;;;;;;;5107128;28;20589;-69
2021/09/27 09:57:37;;;;;;;7.53;2.90;;;;;;;;;;5107944;28;20112;-68
2021/09/27 10:00:22;;;;;;;5.35;2.50;;;;;;;;;;5104186;28;20024;-68
2021/09/27 10:02:50;;;;;;;8.00;2.90;;;;;;;;;;5100201;28;20027;-69
2021/09/27 10:05:16;;;;;;;7.40;3.00;;;;;;;;;;5108964;28;20020;-68
2021/09/27 10:07:46;;;;;;;5.30;2.75;;;;;;;;;;5108038;28;20108;-70
2021/09/27 10:10:30;;;;;;;8.63;3.10;;;;;;;;;;5107634;28;20406;-69
2021/09/27 10:12:57;;;;;;;5.03;2.45;;;;;;;;;;5109842;28;20020;-70
2021/09/27 10:15:38;;;;;;;9.05;2.78;;;;;;;;;;5109381;28;20538;-70
2021/09/27 10:18:08;;;;;;;4.55;2.55;;;;;;;;;;5109982;28;20052;-69
2021/09/27 10:20:39;;;;;;;7.47;2.50;;;;;;;;;;5108423;28;20024;-68
2021/09/27 10:23:11;;;;;;;4.65;2.28;;;;;;;;;;5109365;28;20028;-67
2021/09/27 10:25:40;;;;;;;5.63;2.70;;;;;;;;;;5108363;28;20190;-68
2021/09/27 10:28:08;;;;;;;5.30;2.67;;;;;;;;;;5109669;28;20260;-68
2021/09/27 10:30:42;;;;;;;6.40;2.70;;;;;;;;;;5107944;28;20016;-67
2021/09/27 10:33:20;;;;;;;6.20;3.47;;;;;;;;;;5108080;28;20042;-67
2021/09/27 10:36:12;;;;;;;6.63;3.05;;;;;;;;;;5103423;28;20043;-68
2021/09/27 10:38:42;;;;;;;8.00;2.65;;;;;;;;;;5084996;28;20036;-68
2021/09/27 10:41:17;;;;;;;7.47;3.03;;;;;;;;;;5101983;28;20028;-67
2021/09/27 10:43:44;;;;;;;4.95;2.25;;;;;;;;;;5094391;28;20058;-68
2021/09/27 10:46:10;;;;;;;4.65;2.67;;;;;;;;;;5104183;28;20055;-68
2021/09/27 10:48:37;;;;;;;6.07;3.22;;;;;;;;;;5088849;28;20836;-67
2021/09/27 10:51:05;;;;;;;5.65;2.70;;;;;;;;;;5092332;28;20396;-68
2021/09/27 10:53:36;;;;;;;8.80;3.00;;;;;;;;;;5093957;28;20028;-67
2021/09/27 10:56:11;;;;;;;5.80;2.67;;;;;;;;;;5090055;28;20040;-69
2021/09/27 10:58:40;;;;;;;5.03;2.90;;;;;;;;;;5089520;28;20417;-66
2021/09/27 11:01:08;;;;;;;7.45;2.90;;;;;;;;;;5091084;28;20107;-67
2021/09/27 11:03:38;;;;;;;5.57;2.78;;;;;;;;;;5100335;28;20034;-68
2021/09/27 11:06:23;;;;;;;5.72;2.78;;;;;;;;;;5090835;28;20501;-67
2021/09/27 11:08:54;;;;;;;6.95;2.53;;;;;;;;;;5093811;28;20056;-66
2021/09/27 11:11:30;;;;;;;7.73;2.80;;;;;;;;;;5092531;28;20032;-66
2021/09/27 11:13:57;;;;;;;5.13;2.67;;;;;;;;;;5092160;28;20016;-68
2021/09/27 11:16:30;;;;;;;5.68;2.30;;;;;;;;;;5090855;28;20040;-66
2021/09/27 11:19:24;;;;;;;7.20;2.92;;;;;;;;;;5090305;28;20027;-66
2021/09/27 11:21:51;;;;;;;8.25;2.58;;;;;;;;;;5091960;28;20107;-67
2021/09/27 11:24:17;;;;;;;6.03;2.55;;;;;;;;;;5092692;28;20116;-67
2021/09/27 11:26:46;;;;;;;4.85;2.75;;;;;;;;;;5092888;28;20028;-66
2021/09/27 11:29:18;;;;;;;5.43;2.35;;;;;;;;;;5073991;28;20492;-64
2021/09/27 11:31:44;;;;;;;;;;;;;;;;;;5071907;28;20078;-66
2021/09/27 11:34:31;;;;;;;6.95;2.47;;;;;;;;;;5071920;28;20493;-67
2021/09/27 11:37:09;;;;;;;5.53;2.70;;;;;;;;;;5073730;28;20052;-65
2021/09/27 11:39:44;;;;;;;5.40;2.80;;;;;;;;;;5070821;28;20710;-65
2021/09/27 11:42:14;;;;;;;7.30;3.13;;;;;;;;;;5071321;28;20025;-66
2021/09/27 11:44:58;;;;;;;6.97;3.15;;;;;;;;;;5086311;28;20524;-65
2021/09/27 11:47:45;;;;;;;6.82;3.10;;;;;;;;;;5093485;28;20032;-67
2021/09/27 11:50:33;;;;;;;6.13;2.60;;;;;;;;;;5093676;28;20480;-68
2021/09/27 11:53:08;;;;;;;4.53;2.22;;;;;;;;;;5082572;28;20401;-67
2021/09/27 11:55:37;;;;;;;6.50;2.50;;;;;;;;;;5091898;28;20043;-65
2021/09/27 11:58:24;;;;;;;5.18;2.42;;;;;;;;;;5085848;28;20024;-67
2021/09/27 12:01:02;;;;;;;4.78;2.00;;;;;;;;;;5090109;28;20057;-64
2021/09/27 12:03:38;;;;;;;6.30;2.92;;;;;;;;;;5092915;28;20073;-67
2021/09/27 12:06:04;;;;;;;4.32;1.98;;;;;;;;;;5094141;28;20055;-67
2021/09/27 12:08:35;;;;;;;3.88;2.08;;;;;;;;;;5093454;28;20028;-67
2021/09/27 12:11:10;;;;;;;5.78;2.63;;;;;;;;;;5092828;28;20024;-67
2021/09/27 12:13:55;;;;;;;8.27;2.65;;;;;;;;;;5093828;28;20028;-67
2021/09/27 12:16:25;;;;;;;4.80;2.95;;;;;;;;;;5093255;28;20032;-67
2021/09/27 12:18:55;;;;;;;3.78;2.60;;;;;;;;;;5093402;28;20103;-67
2021/09/27 12:21:25;;;;;;;4.40;2.35;;;;;;;;;;5093495;28;20036;-65
2021/09/27 12:23:53;;;;;;;3.92;2.35;;;;;;;;;;5092063;28;20024;-65
2021/09/27 12:26:22;;;;;;;5.90;2.92;;;;;;;;;;5094043;28;20024;-67
2021/09/27 12:28:48;;;;;;;4.28;2.33;;;;;;;;;;5093633;28;20099;-66
2021/09/27 12:31:14;;;;;;;7.07;2.30;;;;;;;;;;5092824;28;20016;-67
2021/09/27 12:33:41;;;;;;;5.32;2.40;;;;;;;;;;5093605;28;20388;-68
2021/09/27 12:36:12;;;;;;;3.78;2.03;;;;;;;;;;5093423;28;20059;-67
2021/09/27 12:38:49;;;;;;;4.65;2.70;;;;;;;;;;5093685;28;20038;-66
2021/09/27 12:41:15;;;;;;;4.97;2.28;;;;;;;;;;5091468;28;20020;-67
2021/09/27 12:43:41;;;;;;;5.30;2.25;;;;;;;;;;5093117;28;20042;-64
2021/09/27 12:46:16;;;;;;;5.95;2.92;;;;;;;;;;5090983;28;20028;-66
2021/09/27 12:48:43;;;;;;;7.40;2.70;;;;;;;;;;5093071;28;20085;-67
2021/09/27 12:51:20;;;;;;;9.18;2.65;;;;;;;;;;5092773;28;20024;-69
2021/09/27 12:54:00;;;;;;;3.13;2.03;;;;;;;;;;5092324;28;20020;-67
2021/09/27 12:56:27;;;;;;;5.65;2.17;;;;;;;;;;5085945;28;20054;-64
2021/09/27 12:58:59;;;;;;;8.00;2.30;;;;;;;;;;5107314;28;20030;-68
2021/09/27 13:01:27;;;;;;;3.65;1.92;;;;;;;;;;5110264;28;20073;-68
2021/09/27 13:04:02;;;;;;;9.95;3.40;;;;;;;;;;5109973;28;20695;-68
2021/09/27 13:06:30;;;;;;;9.02;2.17;;;;;;;;;;5112169;28;20129;-68
2021/09/27 13:09:23;;;;;;;5.15;2.58;;;;;;;;;;5112348;28;20034;-69
2021/09/27 13:11:51;;;;;;;5.65;2.10;;;;;;;;;;5108824;28;20048;-68
2021/09/27 13:14:25;;;;;;;7.20;2.28;;;;;;;;;;5111317;28;20028;-68
2021/09/27 13:16:55;;;;;;;5.28;2.33;;;;;;;;;;5112688;28;20097;-69
2021/09/27 13:19:39;;;;;;;6.72;1.88;;;;;;;;;;5112671;28;20020;-69
2021/09/27 13:22:07;;;;;;;6.93;1.98;;;;;;;;;;5112848;28;20024;-68
2021/09/27 13:24:34;;;;;;;7.00;2.75;;;;;;;;;;5112530;28;20046;-69
2021/09/27 13:27:06;;;;;;;6.75;1.95;;;;;;;;;;5112916;28;20020;-69
2021/09/27 13:29:36;;;;;;;5.50;2.33;;;;;;;;;;5112308;28;20550;-69
2021/09/27 13:32:31;;;;;;;6.43;2.00;;;;;;;;;;5113158;28;20099;-69
2021/09/27 13:35:09;;;;;;;5.60;2.25;;;;;;;;;;5111979;28;20063;-69
2021/09/27 13:37:41;;;;;;;5.88;2.42;;;;;;;;;;5113675;28;20017;-69
2021/09/27 13:40:28;;;;;;;7.40;2.97;;;;;;;;;;5111773;28;20386;-69
2021/09/27 13:43:09;;;;;;;6.00;2.40;;;;;;;;;;5112226;28;20050;-69
2021/09/27 13:45:37;;;;;;;4.05;1.77;;;;;;;;;;5112615;28;20047;-69
2021/09/27 13:48:04;;;;;;;10.80;2.97;;;;;;;;;;5113103;28;20026;-69
2021/09/27 13:50:30;;;;;;;7.45;2.80;;;;;;;;;;5113253;28;20027;-68
2021/09/27 13:52:59;;;;;;;4.28;2.20;;;;;;;;;;5113004;28;20074;-69
2021/09/27 13:55:28;;;;;;;5.15;2.28;;;;;;;;;;5113489;28;20032;-69
2021/09/27 13:57:54;;;;;;;7.97;3.03;;;;;;;;;;5112159;28;20077;-69
2021/09/27 14:00:20;;;;;;;6.82;2.40;;;;;;;;;;5111732;28;20523;-69
2021/09/27 14:02:47;;;;;;;9.38;2.78;;;;;;;;;;5113174;28;20019;-68
2021/09/27 14:05:15;;;;;;;13.82;3.42;;;;;;;;;;5113308;28;20529;-69
2021/09/27 14:07:41;;;;;;;12.43;3.08;;;;;;;;;;5112950;28;20016;-67
2021/09/27 14:10:08;;;;;;;4.53;2.40;;;;;;;;;;5111882;28;20380;-67
2021/09/27 14:12:34;;;;;;;7.90;2.42;;;;;;;;;;5111822;28;20392;-67
2021/09/27 14:15:00;;;;;;;8.55;2.95;;;;;;;;;;5112828;28;20023;-67
2021/09/27 14:17:26;;;;;;;10.23;2.60;;;;;;;;;;5113206;28;20511;-68
2021/09/27 14:19:53;;;;;;;7.32;2.55;;;;;;;;;;5112195;28;20055;-68
2021/09/27 14:22:19;;;;;;;6.13;2.80;;;;;;;;;;5112790;28;20480;-68
2021/09/27 14:24:46;;;;;;;11.63;6.38;;;;;;;;;;5115121;28;20028;-68
2021/09/27 14:27:12;;;;;;;7.53;3.50;;;;;;;;;;5116697;28;20039;-68
2021/09/27 14:29:39;;;;;;;8.45;3.13;;;;;;;;;;5116336;28;20024;-69
2021/09/27 14:32:05;;;;;;;9.63;3.15;;;;;;;;;;5116500;28;20103;-69
2021/09/27 14:34:31;;;;;;;7.63;2.90;;;;;;;;;;5115112;28;20459;-68
2021/09/27 14:36:57;;;;;;;7.00;2.70;;;;;;;;;;5116298;28;20043;-69
2021/09/27 14:39:25;;;;;;;7.68;2.90;;;;;;;;;;5115404;28;20045;-69
2021/09/27 14:41:51;;;;;;;8.73;2.83;;;;;;;;;;5116254;28;20015;-69
2021/09/27 14:44:18;;;;;;;10.15;3.00;;;;;;;;;;5115804;28;20051;-69
2021/09/27 14:46:46;;;;;;;6.93;2.60;;;;;;;;;;5116582;28;20098;-69
2021/09/27 14:49:13;;;;;;;9.20;2.95;;;;;;;;;;5116197;28;20471;-68
2021/09/27 14:51:41;;;;;;;9.10;3.03;;;;;;;;;;5115127;28;20102;-68
2021/09/27 14:54:07;;;;;;;12.63;4.15;;;;;;;;;;5116485;28;20038;-69
2021/09/27 14:56:33;;;;;;;8.80;2.90;;;;;;;;;;5095694;28;20032;-70
2021/09/27 14:59:00;;;;;;;9.00;2.40;;;;;;;;;;5095880;28;20024;-68
2021/09/27 15:01:26;;;;;;;15.07;3.38;;;;;;;;;;5096132;28;20020;-68
2021/09/27 15:03:52;;;;;;;12.10;2.50;;;;;;;;;;5095681;28;20436;-68
2021/09/27 15:06:21;;;;;;;10.73;3.15;;;;;;;;;;5095923;28;20024;-68
2021/09/27 15:08:48;;;;;;;12.55;3.58;;;;;;;;;;5096137;28;20024;-69
2021/09/27 15:11:14;;;;;;;10.57;2.42;;;;;;;;;;5095373;28;20097;-68
2021/09/27 15:13:41;;;;;;;13.82;3.55;;;;;;;;;;5094442;28;20035;-69
2021/09/27 15:16:07;;;;;;;10.00;3.05;;;;;;;;;;5095558;28;20028;-68
2021/09/27 15:18:33;;;;;;;14.60;3.75;;;;;;;;;;5094024;28;20090;-68
2021/09/27 15:21:01;;;;;;;11.05;2.92;;;;;;;;;;5096171;28;20495;-69
2021/09/27 15:23:34;;;;;;;10.18;3.28;;;;;;;;;;5095459;28;20385;-69
2021/09/27 15:26:08;;;;;;;10.65;2.80;;;;;;;;;;5093878;28;20024;-69
2021/09/27 15:28:34;;;;;;;9.70;3.00;;;;;;;;;;5095603;28;20040;-69
2021/09/27 15:31:01;;;;;;;4.70;2.05;;;;;;;;;;5095396;28;20027;-67
2021/09/27 15:33:28;;;;;;;8.80;2.92;;;;;;;;;;5094816;28;20372;-68
2021/09/27 15:35:54;;;;;;;16.77;2.88;;;;;;;;;;5094911;28;20135;-68
2021/09/27 15:38:22;;;;;;;6.15;2.35;;;;;;;;;;5090279;28;20311;-69
2021/09/27 15:40:49;;;;;;;7.93;2.83;;;;;;;;;;5093116;28;20016;-69
2021/09/27 15:43:15;;;;;;;7.90;2.45;;;;;;;;;;5094825;28;20020;-69
2021/09/27 15:45:41;;;;;;;12.48;3.53;;;;;;;;;;5094824;28;20024;-68
2021/09/27 15:48:09;;;;;;;8.23;2.92;;;;;;;;;;5095117;28;20024;-69
2021/09/27 15:50:35;;;;;;;10.18;3.50;;;;;;;;;;5094993;28;20020;-68
2021/09/27 15:53:01;;;;;;;9.32;2.67;;;;;;;;;;5094716;28;20016;-69
2021/09/27 15:55:28;;;;;;;10.35;4.00;;;;;;;;;;5094874;28;20111;-68
2021/09/27 15:57:54;;;;;;;8.95;2.90;;;;;;;;;;5095326;28;20379;-69
2021/09/27 16:00:21;;;;;;;5.93;2.42;;;;;;;;;;5094645;28;20036;-69
2021/09/27 16:02:48;;;;;;;9.77;3.03;;;;;;;;;;5095072;28;20024;-69
2021/09/27 16:05:14;;;;;;;15.20;5.57;;;;;;;;;;5094735;28;20028;-68
2021/09/27 16:07:40;;;;;;;15.40;5.57;;;;;;;;;;5094398;28;20103;-69
2021/09/27 16:10:07;;;;;;;27.55;10.27;;;;;;;;;;5094577;28;20020;-68
2021/09/27 16:12:34;;;;;;;20.85;8.82;;;;;;;;;;5094645;28;20095;-68
2021/09/27 16:15:00;;;;;;;21.95;7.93;;;;;;;;;;5094171;28;20098;-69
2021/09/27 16:17:26;;;;;;;13.98;5.28;;;;;;;;;;5094520;28;20030;-68
2021/09/27 16:19:53;;;;;;;22.05;5.30;;;;;;;;;;5093166;28;20358;-69
2021/09/27 16:22:19;;;;;;;21.63;5.95;;;;;;;;;;5094118;28;20024;-68
2021/09/27 16:24:45;;;;;;;19.60;5.88;;;;;;;;;;5093035;28;20073;-68
2021/09/27 16:27:11;;;;;;;13.50;6.20;;;;;;;;;;5094449;28;20052;-68
2021/09/27 16:29:37;;;;;;;18.67;6.60;;;;;;;;;;5094078;28;20031;-68
2021/09/27 16:32:05;;;;;;;16.25;6.70;;;;;;;;;;5094308;28;20513;-69
2021/09/27 16:34:33;;;;;;;20.52;8.45;;;;;;;;;;5094198;28;20031;-68
2021/09/27 16:36:59;;;;;;;18.13;6.38;;;;;;;;;;5094312;28;20111;-68
2021/09/27 16:39:27;;;;;;;20.45;5.28;;;;;;;;;;5094265;28;20020;-68
2021/09/27 16:41:53;;;;;;;20.35;6.63;;;;;;;;;;5093884;28;20039;-68
2021/09/27 16:44:25;;;;;;;22.70;6.32;;;;;;;;;;5092361;28;20024;-68
2021/09/27 16:46:52;;;;;;;12.82;5.10;;;;;;;;;;5093851;28;20095;-68
2021/09/27 16:49:33;;;;;;;15.00;5.78;;;;;;;;;;5111112;27;20437;-69
2021/09/27 16:51:59;;;;;;;13.90;5.43;;;;;;;;;;5111195;28;20034;-69
2021/09/27 16:54:58;;;;;;;17.42;5.13;;;;;;;;;;5051104;28;20777;-68
2021/09/27 16:57:28;;;;;;;13.93;5.15;;;;;;;;;;5050223;28;20021;-68
2021/09/27 17:03:19;;;;;;;14.57;3.92;;;;;;;;;;5070652;28;20402;-68
2021/09/27 17:05:45;;;;;;;10.45;4.38;;;;;;;;;;5070874;28;20090;-68
2021/09/27 17:08:12;;;;;;;12.23;4.93;;;;;;;;;;5070160;28;20080;-68
2021/09/27 17:10:38;;;;;;;12.48;4.18;;;;;;;;;;5068817;28;20029;-67
2021/09/27 17:13:04;;;;;;;7.93;3.47;;;;;;;;;;5070115;28;20094;-67
2021/09/27 17:18:16;;;;;;;10.40;4.07;;;;;;;;;;5070117;28;20052;-67
2021/09/27 17:20:47;;;;;;;12.20;4.20;;;;;;;;;;5070375;28;20024;-68
2021/09/27 17:24:22;;;;;;;11.85;3.92;;;;;;;;;;5070589;28;20414;-66
2021/09/27 17:26:49;;;;;;;13.45;4.30;;;;;;;;;;5069191;28;20439;-68
2021/09/27 17:30:03;;;;;;;21.33;8.73;;;;;;;;;;5111935;27;20450;-67
2021/09/27 17:32:29;;;;;;;16.52;8.10;;;;;;;;;;5109411;28;20089;-67